sensor_id;sensor_type;location;lat;lon;timestamp;pressure;altitude;pressure_sealevel;temperature;humidity
73105;BME280;61296;50.526;30.792;2023-06-10T00:02:03;99310.75;;;19.44;55.75
73105;BME280;61296;50.526;30.792;2023-06-10T00:17:22;99277.13;;;19.06;56.64
73105;BME280;61296;50.526;30.792;2023-06-10T00:32:42;99341.94;;;19.10;58.06
73105;BME280;61296;50.526;30.792;2023-06-10T00:48:02;99263.31;;;18.21;59.76
73105;BME280;61296;50.526;30.792;2023-06-10T01:03:23;99233.84;;;17.51;62.34
73105;BME280;61296;50.526;30.792;2023-06-10T01:18:43;99280.69;;;17.72;62.14
73105;BME280;61296;50.526;30.792;2023-06-10T01:34:07;99286.63;;;17.74;61.99
73105;BME280;61296;50.526;30.792;2023-06-10T01:49:27;99274.91;;;17.63;62.41
73105;BME280;61296;50.526;30.792;2023-06-10T02:04:47;99290.50;;;17.57;62.97
73105;BME280;61296;50.526;30.792;2023-06-10T02:20:07;99289.94;;;17.46;63.21
73105;BME280;61296;50.526;30.792;2023-06-10T02:35:29;99284.09;;;17.20;64.50
73105;BME280;61296;50.526;30.792;2023-06-10T02:50:49;99294.88;;;16.95;65.05
73105;BME280;61296;50.526;30.792;2023-06-10T03:06:18;99315.13;;;17.15;64.88
73105;BME280;61296;50.526;30.792;2023-06-10T03:21:37;99311.38;;;17.25;64.81
73105;BME280;61296;50.526;30.792;2023-06-10T03:36:58;99339.47;;;17.74;64.83
73105;BME280;61296;50.526;30.792;2023-06-10T03:52:18;99332.81;;;17.88;64.84
73105;BME280;61296;50.526;30.792;2023-06-10T04:07:37;99329.56;;;18.62;64.37
73105;BME280;61296;50.526;30.792;2023-06-10T04:22:59;99317.97;;;18.96;63.59
73105;BME280;61296;50.526;30.792;2023-06-10T04:38:19;99321.63;;;19.09;64.51
73105;BME280;61296;50.526;30.792;2023-06-10T04:53:39;99337.13;;;19.97;61.74
73105;BME280;61296;50.526;30.792;2023-06-10T05:08:58;99325.56;;;20.24;61.84
73105;BME280;61296;50.526;30.792;2023-06-10T05:24:17;99360.16;;;21.03;59.84
73105;BME280;61296;50.526;30.792;2023-06-10T05:39:37;99301.94;;;21.23;56.74
73105;BME280;61296;50.526;30.792;2023-06-10T05:54:56;99334.59;;;21.83;54.45
73105;BME280;61296;50.526;30.792;2023-06-10T06:10:17;99341.69;;;21.97;54.08
73105;BME280;61296;50.526;30.792;2023-06-10T06:25:36;99326.41;;;22.51;53.84
73105;BME280;61296;50.526;30.792;2023-06-10T06:40:57;99367.31;;;23.65;51.41
73105;BME280;61296;50.526;30.792;2023-06-10T06:56:22;99353.38;;;23.07;52.73
73105;BME280;61296;50.526;30.792;2023-06-10T07:11:42;99331.47;;;22.74;54.87
73105;BME280;61296;50.526;30.792;2023-06-10T07:27:02;99339.88;;;23.60;52.70
73105;BME280;61296;50.526;30.792;2023-06-10T07:42:21;99356.38;;;23.58;51.84
73105;BME280;61296;50.526;30.792;2023-06-10T07:57:43;99322.41;;;23.47;52.27
73105;BME280;61296;50.526;30.792;2023-06-10T08:13:02;99311.31;;;23.80;50.76
73105;BME280;61296;50.526;30.792;2023-06-10T08:28:21;99344.63;;;24.05;50.44
73105;BME280;61296;50.526;30.792;2023-06-10T08:43:46;99364.53;;;24.44;49.31
73105;BME280;61296;50.526;30.792;2023-06-10T08:59:08;99379.88;;;24.25;50.67
73105;BME280;61296;50.526;30.792;2023-06-10T09:14:28;99320.34;;;23.20;51.35
73105;BME280;61296;50.526;30.792;2023-06-10T09:29:52;99426.44;;;23.71;52.31
73105;BME280;61296;50.526;30.792;2023-06-10T09:45:14;99347.63;;;23.19;51.89
73105;BME280;61296;50.526;30.792;2023-06-10T10:00:34;99314.72;;;22.92;51.45
73105;BME280;61296;50.526;30.792;2023-06-10T10:15:56;99338.34;;;22.82;52.21
73105;BME280;61296;50.526;30.792;2023-06-10T10:31:18;99358.94;;;22.88;54.36
73105;BME280;61296;50.526;30.792;2023-06-10T10:46:43;99285.63;;;22.50;55.59
73105;BME280;61296;50.526;30.792;2023-06-10T11:02:03;99398.47;;;23.49;55.66
73105;BME280;61296;50.526;30.792;2023-06-10T11:17:22;99330.97;;;23.61;55.71
73105;BME280;61296;50.526;30.792;2023-06-10T11:32:43;99294.53;;;24.13;54.34
73105;BME280;61296;50.526;30.792;2023-06-10T11:48:02;99296.97;;;24.29;53.76
73105;BME280;61296;50.526;30.792;2023-06-10T12:03:22;99308.56;;;24.55;50.93
73105;BME280;61296;50.526;30.792;2023-06-10T12:18:43;99264.84;;;24.78;52.31
73105;BME280;61296;50.526;30.792;2023-06-10T12:34:09;99202.34;;;24.35;51.92
73105;BME280;61296;50.526;30.792;2023-06-10T12:49:29;99243.91;;;23.89;51.06
73105;BME280;61296;50.526;30.792;2023-06-10T13:04:48;99251.31;;;22.27;53.06
73105;BME280;61296;50.526;30.792;2023-06-10T13:20:07;99254.47;;;21.11;52.54
73105;BME280;61296;50.526;30.792;2023-06-10T13:35:26;99396.16;;;20.25;58.94
73105;BME280;61296;50.526;30.792;2023-06-10T13:50:46;99341.38;;;15.79;93.67
73105;BME280;61296;50.526;30.792;2023-06-10T14:06:05;99383.00;;;14.34;100.00
73105;BME280;61296;50.526;30.792;2023-06-10T14:21:24;99291.97;;;13.99;100.00
73105;BME280;61296;50.526;30.792;2023-06-10T14:36:43;99396.41;;;14.36;100.00
73105;BME280;61296;50.526;30.792;2023-06-10T14:52:02;99280.59;;;14.49;100.00
73105;BME280;61296;50.526;30.792;2023-06-10T15:07:22;99315.41;;;14.91;100.00
73105;BME280;61296;50.526;30.792;2023-06-10T15:22:40;99418.00;;;15.63;100.00
73105;BME280;61296;50.526;30.792;2023-06-10T15:38:00;99339.03;;;15.40;100.00
73105;BME280;61296;50.526;30.792;2023-06-10T15:53:19;99331.72;;;15.61;100.00
73105;BME280;61296;50.526;30.792;2023-06-10T16:08:38;99323.97;;;16.09;100.00
73105;BME280;61296;50.526;30.792;2023-06-10T16:23:58;99335.44;;;16.38;100.00
73105;BME280;61296;50.526;30.792;2023-06-10T16:39:17;99334.00;;;16.54;100.00
73105;BME280;61296;50.526;30.792;2023-06-10T16:54:36;99422.00;;;17.34;100.00
73105;BME280;61296;50.526;30.792;2023-06-10T17:09:56;99332.69;;;16.62;100.00
73105;BME280;61296;50.526;30.792;2023-06-10T17:25:15;99435.06;;;16.87;100.00
73105;BME280;61296;50.526;30.792;2023-06-10T17:40:35;99472.50;;;16.79;100.00
73105;BME280;61296;50.526;30.792;2023-06-10T17:55:54;99387.78;;;14.93;100.00
73105;BME280;61296;50.526;30.792;2023-06-10T18:11:13;99463.56;;;15.62;100.00
73105;BME280;61296;50.526;30.792;2023-06-10T18:26:32;99449.13;;;15.36;100.00
73105;BME280;61296;50.526;30.792;2023-06-10T18:41:54;99432.44;;;15.43;100.00
73105;BME280;61296;50.526;30.792;2023-06-10T18:57:13;99441.03;;;15.52;100.00
73105;BME280;61296;50.526;30.792;2023-06-10T19:12:33;99488.66;;;15.88;100.00
73105;BME280;61296;50.526;30.792;2023-06-10T19:27:53;99454.88;;;15.56;100.00
73105;BME280;61296;50.526;30.792;2023-06-10T19:43:13;99472.03;;;15.40;100.00
73105;BME280;61296;50.526;30.792;2023-06-10T19:58:32;99482.97;;;15.62;100.00
73105;BME280;61296;50.526;30.792;2023-06-10T20:13:52;99471.53;;;15.56;100.00
73105;BME280;61296;50.526;30.792;2023-06-10T20:29:11;99466.84;;;15.46;100.00
73105;BME280;61296;50.526;30.792;2023-06-10T20:44:30;99476.13;;;15.25;100.00
73105;BME280;61296;50.526;30.792;2023-06-10T20:59:50;99449.47;;;15.42;100.00
73105;BME280;61296;50.526;30.792;2023-06-10T21:15:09;99447.78;;;15.51;100.00
73105;BME280;61296;50.526;30.792;2023-06-10T21:30:28;99459.97;;;15.65;100.00
73105;BME280;61296;50.526;30.792;2023-06-10T21:45:48;99441.81;;;15.56;100.00
73105;BME280;61296;50.526;30.792;2023-06-10T22:01:07;99354.81;;;15.06;100.00
73105;BME280;61296;50.526;30.792;2023-06-10T22:16:27;99454.75;;;15.70;100.00
73105;BME280;61296;50.526;30.792;2023-06-10T22:31:46;99480.03;;;15.79;100.00
73105;BME280;61296;50.526;30.792;2023-06-10T22:47:06;99396.44;;;15.40;100.00
73105;BME280;61296;50.526;30.792;2023-06-10T23:02:25;99400.19;;;15.19;100.00
73105;BME280;61296;50.526;30.792;2023-06-10T23:17:44;99442.59;;;15.57;100.00
73105;BME280;61296;50.526;30.792;2023-06-10T23:33:06;99439.06;;;15.08;100.00
73105;BME280;61296;50.526;30.792;2023-06-10T23:48:26;99467.91;;;15.11;100.00
